sensor_id;sensor_type;location;lat;lon;timestamp;temperature;humidity
58519;DHT22;44310;48.106;12.008;2023-12-04T00:02:02;13.40;92.30
58519;DHT22;44310;48.106;12.008;2023-12-04T00:04:29;13.50;92.60
58519;DHT22;44310;48.106;12.008;2023-12-04T00:06:57;14.00;92.50
58519;DHT22;44310;48.106;12.008;2023-12-04T00:09:24;13.70;92.60
58519;DHT22;44310;48.106;12.008;2023-12-04T00:11:52;13.90;92.70
58519;DHT22;44310;48.106;12.008;2023-12-04T00:14:19;14.00;92.70
58519;DHT22;44310;48.106;12.008;2023-12-04T00:16:46;14.00;92.80
58519;DHT22;44310;48.106;12.008;2023-12-04T00:19:13;14.10;93.00
58519;DHT22;44310;48.106;12.008;2023-12-04T00:21:40;14.20;93.30
58519;DHT22;44310;48.106;12.008;2023-12-04T00:24:08;14.20;93.30
58519;DHT22;44310;48.106;12.008;2023-12-04T00:26:35;14.30;93.40
58519;DHT22;44310;48.106;12.008;2023-12-04T00:29:02;14.30;93.40
58519;DHT22;44310;48.106;12.008;2023-12-04T00:31:29;14.40;93.50
58519;DHT22;44310;48.106;12.008;2023-12-04T00:33:58;14.40;93.60
58519;DHT22;44310;48.106;12.008;2023-12-04T00:36:25;14.40;93.70
58519;DHT22;44310;48.106;12.008;2023-12-04T00:38:53;14.40;93.70
58519;DHT22;44310;48.106;12.008;2023-12-04T00:41:20;14.40;93.70
58519;DHT22;44310;48.106;12.008;2023-12-04T00:43:47;14.50;93.90
58519;DHT22;44310;48.106;12.008;2023-12-04T00:46:14;14.50;93.90
58519;DHT22;44310;48.106;12.008;2023-12-04T00:48:41;14.50;94.10
58519;DHT22;44310;48.106;12.008;2023-12-04T00:51:08;14.50;94.10
58519;DHT22;44310;48.106;12.008;2023-12-04T00:53:35;14.50;94.10
58519;DHT22;44310;48.106;12.008;2023-12-04T00:56:03;14.60;94.30
58519;DHT22;44310;48.106;12.008;2023-12-04T00:58:30;14.50;94.30
58519;DHT22;44310;48.106;12.008;2023-12-04T01:00:57;14.50;94.40
58519;DHT22;44310;48.106;12.008;2023-12-04T01:03:24;14.60;94.50
58519;DHT22;44310;48.106;12.008;2023-12-04T01:05:53;14.70;94.50
58519;DHT22;44310;48.106;12.008;2023-12-04T01:08:20;14.50;94.60
58519;DHT22;44310;48.106;12.008;2023-12-04T01:10:49;14.70;94.80
58519;DHT22;44310;48.106;12.008;2023-12-04T01:13:16;14.50;94.70
58519;DHT22;44310;48.106;12.008;2023-12-04T01:15:43;14.50;94.70
58519;DHT22;44310;48.106;12.008;2023-12-04T01:18:13;14.50;94.80
58519;DHT22;44310;48.106;12.008;2023-12-04T01:20:41;14.50;94.80
58519;DHT22;44310;48.106;12.008;2023-12-04T01:23:08;14.60;95.00
58519;DHT22;44310;48.106;12.008;2023-12-04T01:25:35;14.50;94.90
58519;DHT22;44310;48.106;12.008;2023-12-04T01:28:02;14.60;94.90
58519;DHT22;44310;48.106;12.008;2023-12-04T01:30:29;14.60;95.00
58519;DHT22;44310;48.106;12.008;2023-12-04T01:32:57;14.60;95.00
58519;DHT22;44310;48.106;12.008;2023-12-04T01:35:24;14.60;95.00
58519;DHT22;44310;48.106;12.008;2023-12-04T01:37:51;14.60;95.00
58519;DHT22;44310;48.106;12.008;2023-12-04T01:40:18;14.60;94.90
58519;DHT22;44310;48.106;12.008;2023-12-04T01:42:46;14.70;95.00
58519;DHT22;44310;48.106;12.008;2023-12-04T01:45:13;14.60;95.20
58519;DHT22;44310;48.106;12.008;2023-12-04T01:47:40;14.70;95.40
58519;DHT22;44310;48.106;12.008;2023-12-04T01:50:08;14.70;95.50
58519;DHT22;44310;48.106;12.008;2023-12-04T01:52:36;14.70;95.50
58519;DHT22;44310;48.106;12.008;2023-12-04T01:55:04;14.70;95.50
58519;DHT22;44310;48.106;12.008;2023-12-04T01:57:33;14.70;95.50
58519;DHT22;44310;48.106;12.008;2023-12-04T02:00:00;14.70;95.50
58519;DHT22;44310;48.106;12.008;2023-12-04T02:02:28;14.60;95.40
58519;DHT22;44310;48.106;12.008;2023-12-04T02:04:57;14.60;95.30
58519;DHT22;44310;48.106;12.008;2023-12-04T02:07:25;14.50;95.20
58519;DHT22;44310;48.106;12.008;2023-12-04T02:09:52;14.50;95.40
58519;DHT22;44310;48.106;12.008;2023-12-04T02:12:19;14.50;95.40
58519;DHT22;44310;48.106;12.008;2023-12-04T02:14:46;14.50;95.50
58519;DHT22;44310;48.106;12.008;2023-12-04T02:17:14;14.50;95.50
58519;DHT22;44310;48.106;12.008;2023-12-04T02:19:42;14.50;96.00
58519;DHT22;44310;48.106;12.008;2023-12-04T02:22:10;14.50;95.90
58519;DHT22;44310;48.106;12.008;2023-12-04T02:24:37;14.50;95.90
58519;DHT22;44310;48.106;12.008;2023-12-04T02:27:16;14.50;95.90
58519;DHT22;44310;48.106;12.008;2023-12-04T02:29:47;14.50;95.90
58519;DHT22;44310;48.106;12.008;2023-12-04T02:32:17;14.50;95.90
58519;DHT22;44310;48.106;12.008;2023-12-04T02:34:47;14.50;96.10
58519;DHT22;44310;48.106;12.008;2023-12-04T02:37:17;14.50;95.80
58519;DHT22;44310;48.106;12.008;2023-12-04T02:39:44;14.40;95.70
58519;DHT22;44310;48.106;12.008;2023-12-04T02:42:12;14.50;95.80
58519;DHT22;44310;48.106;12.008;2023-12-04T02:44:40;14.60;96.30
58519;DHT22;44310;48.106;12.008;2023-12-04T02:47:07;14.60;96.50
58519;DHT22;44310;48.106;12.008;2023-12-04T02:49:34;14.70;96.70
58519;DHT22;44310;48.106;12.008;2023-12-04T02:52:02;14.70;96.90
58519;DHT22;44310;48.106;12.008;2023-12-04T02:54:30;14.80;97.00
58519;DHT22;44310;48.106;12.008;2023-12-04T02:56:57;14.80;97.10
58519;DHT22;44310;48.106;12.008;2023-12-04T02:59:24;15.20;97.20
58519;DHT22;44310;48.106;12.008;2023-12-04T03:01:51;14.80;97.20
58519;DHT22;44310;48.106;12.008;2023-12-04T03:04:21;14.80;97.20
58519;DHT22;44310;48.106;12.008;2023-12-04T03:06:48;14.80;97.10
58519;DHT22;44310;48.106;12.008;2023-12-04T03:09:15;14.70;97.00
58519;DHT22;44310;48.106;12.008;2023-12-04T03:11:42;14.70;97.00
58519;DHT22;44310;48.106;12.008;2023-12-04T03:14:09;14.70;97.00
58519;DHT22;44310;48.106;12.008;2023-12-04T03:16:36;14.70;97.00
58519;DHT22;44310;48.106;12.008;2023-12-04T03:19:03;14.60;97.00
58519;DHT22;44310;48.106;12.008;2023-12-04T03:21:31;14.60;97.00
58519;DHT22;44310;48.106;12.008;2023-12-04T03:23:58;14.60;97.00
58519;DHT22;44310;48.106;12.008;2023-12-04T03:26:25;14.60;97.00
58519;DHT22;44310;48.106;12.008;2023-12-04T03:28:52;14.60;97.00
58519;DHT22;44310;48.106;12.008;2023-12-04T03:31:20;14.60;97.00
58519;DHT22;44310;48.106;12.008;2023-12-04T03:33:47;14.60;97.10
58519;DHT22;44310;48.106;12.008;2023-12-04T03:36:15;14.60;97.20
58519;DHT22;44310;48.106;12.008;2023-12-04T03:38:42;14.60;97.10
58519;DHT22;44310;48.106;12.008;2023-12-04T03:41:15;14.60;97.10
58519;DHT22;44310;48.106;12.008;2023-12-04T03:43:43;14.60;97.10
58519;DHT22;44310;48.106;12.008;2023-12-04T03:46:10;14.60;97.10
58519;DHT22;44310;48.106;12.008;2023-12-04T03:48:37;14.60;97.10
58519;DHT22;44310;48.106;12.008;2023-12-04T03:51:05;14.70;97.50
58519;DHT22;44310;48.106;12.008;2023-12-04T03:53:32;14.70;97.70
58519;DHT22;44310;48.106;12.008;2023-12-04T03:56:00;14.90;97.80
58519;DHT22;44310;48.106;12.008;2023-12-04T03:58:27;14.80;97.90
58519;DHT22;44310;48.106;12.008;2023-12-04T04:00:54;14.80;97.90
58519;DHT22;44310;48.106;12.008;2023-12-04T04:03:21;14.80;98.00
58519;DHT22;44310;48.106;12.008;2023-12-04T04:05:48;14.80;97.90
58519;DHT22;44310;48.106;12.008;2023-12-04T04:08:15;14.80;98.00
58519;DHT22;44310;48.106;12.008;2023-12-04T04:10:42;14.80;98.00
58519;DHT22;44310;48.106;12.008;2023-12-04T04:13:10;14.80;98.00
58519;DHT22;44310;48.106;12.008;2023-12-04T04:15:37;14.80;98.00
58519;DHT22;44310;48.106;12.008;2023-12-04T04:18:04;14.80;98.10
58519;DHT22;44310;48.106;12.008;2023-12-04T04:20:32;14.80;98.10
58519;DHT22;44310;48.106;12.008;2023-12-04T04:22:59;14.80;98.10
58519;DHT22;44310;48.106;12.008;2023-12-04T04:25:26;14.80;98.10
58519;DHT22;44310;48.106;12.008;2023-12-04T04:27:53;14.80;98.20
58519;DHT22;44310;48.106;12.008;2023-12-04T04:30:20;15.00;98.30
58519;DHT22;44310;48.106;12.008;2023-12-04T04:32:47;14.80;98.40
58519;DHT22;44310;48.106;12.008;2023-12-04T04:35:14;15.60;98.50
58519;DHT22;44310;48.106;12.008;2023-12-04T04:37:42;14.70;98.40
58519;DHT22;44310;48.106;12.008;2023-12-04T04:40:12;14.80;98.60
58519;DHT22;44310;48.106;12.008;2023-12-04T04:42:40;14.80;98.60
58519;DHT22;44310;48.106;12.008;2023-12-04T04:45:07;14.90;98.70
58519;DHT22;44310;48.106;12.008;2023-12-04T04:47:34;14.90;98.70
58519;DHT22;44310;48.106;12.008;2023-12-04T04:50:01;14.80;98.60
58519;DHT22;44310;48.106;12.008;2023-12-04T04:52:29;14.80;98.50
58519;DHT22;44310;48.106;12.008;2023-12-04T04:54:59;14.80;98.50
58519;DHT22;44310;48.106;12.008;2023-12-04T04:57:26;15.00;98.50
58519;DHT22;44310;48.106;12.008;2023-12-04T04:59:53;14.60;98.30
58519;DHT22;44310;48.106;12.008;2023-12-04T05:02:20;14.80;98.30
58519;DHT22;44310;48.106;12.008;2023-12-04T05:04:47;14.70;98.20
58519;DHT22;44310;48.106;12.008;2023-12-04T05:07:14;14.70;98.20
58519;DHT22;44310;48.106;12.008;2023-12-04T05:09:41;14.70;98.10
58519;DHT22;44310;48.106;12.008;2023-12-04T05:12:08;15.60;98.30
58519;DHT22;44310;48.106;12.008;2023-12-04T05:14:36;14.70;98.00
58519;DHT22;44310;48.106;12.008;2023-12-04T05:17:03;15.40;98.10
58519;DHT22;44310;48.106;12.008;2023-12-04T05:19:30;14.70;97.80
58519;DHT22;44310;48.106;12.008;2023-12-04T05:21:57;14.70;97.80
58519;DHT22;44310;48.106;12.008;2023-12-04T05:24:24;14.70;97.70
58519;DHT22;44310;48.106;12.008;2023-12-04T05:26:51;14.70;97.70
58519;DHT22;44310;48.106;12.008;2023-12-04T05:29:18;14.70;97.70
58519;DHT22;44310;48.106;12.008;2023-12-04T05:31:46;14.70;97.60
58519;DHT22;44310;48.106;12.008;2023-12-04T05:34:13;14.70;97.40
58519;DHT22;44310;48.106;12.008;2023-12-04T05:36:41;14.60;97.30
58519;DHT22;44310;48.106;12.008;2023-12-04T05:39:08;14.60;97.30
58519;DHT22;44310;48.106;12.008;2023-12-04T05:41:35;14.60;97.30
58519;DHT22;44310;48.106;12.008;2023-12-04T05:44:02;14.60;97.40
58519;DHT22;44310;48.106;12.008;2023-12-04T05:46:30;14.50;97.40
58519;DHT22;44310;48.106;12.008;2023-12-04T05:48:57;14.60;97.60
58519;DHT22;44310;48.106;12.008;2023-12-04T05:51:24;14.60;97.70
58519;DHT22;44310;48.106;12.008;2023-12-04T05:53:51;14.60;97.70
58519;DHT22;44310;48.106;12.008;2023-12-04T05:56:18;14.60;97.70
58519;DHT22;44310;48.106;12.008;2023-12-04T05:58:45;14.60;97.50
58519;DHT22;44310;48.106;12.008;2023-12-04T06:01:13;14.60;97.50
58519;DHT22;44310;48.106;12.008;2023-12-04T06:03:41;14.60;97.40
58519;DHT22;44310;48.106;12.008;2023-12-04T06:06:09;14.60;97.40
58519;DHT22;44310;48.106;12.008;2023-12-04T06:08:36;14.60;97.40
58519;DHT22;44310;48.106;12.008;2023-12-04T06:11:03;14.60;97.40
58519;DHT22;44310;48.106;12.008;2023-12-04T06:13:30;14.60;97.40
58519;DHT22;44310;48.106;12.008;2023-12-04T06:15:57;14.60;97.60
58519;DHT22;44310;48.106;12.008;2023-12-04T06:18:25;14.60;97.70
58519;DHT22;44310;48.106;12.008;2023-12-04T06:20:55;14.70;98.00
58519;DHT22;44310;48.106;12.008;2023-12-04T06:23:22;15.30;98.30
58519;DHT22;44310;48.106;12.008;2023-12-04T06:25:50;14.80;98.30
58519;DHT22;44310;48.106;12.008;2023-12-04T06:28:17;14.80;98.50
58519;DHT22;44310;48.106;12.008;2023-12-04T06:30:45;14.90;98.60
58519;DHT22;44310;48.106;12.008;2023-12-04T06:33:12;14.80;98.50
58519;DHT22;44310;48.106;12.008;2023-12-04T06:35:41;14.90;98.60
58519;DHT22;44310;48.106;12.008;2023-12-04T06:38:08;14.90;98.60
58519;DHT22;44310;48.106;12.008;2023-12-04T06:40:37;14.70;98.60
58519;DHT22;44310;48.106;12.008;2023-12-04T06:43:04;14.80;98.70
58519;DHT22;44310;48.106;12.008;2023-12-04T06:45:32;14.80;98.70
58519;DHT22;44310;48.106;12.008;2023-12-04T06:48:00;14.80;98.70
58519;DHT22;44310;48.106;12.008;2023-12-04T06:50:27;14.80;98.80
58519;DHT22;44310;48.106;12.008;2023-12-04T06:52:54;14.80;98.90
58519;DHT22;44310;48.106;12.008;2023-12-04T06:55:23;14.80;99.00
58519;DHT22;44310;48.106;12.008;2023-12-04T06:57:50;14.90;99.00
58519;DHT22;44310;48.106;12.008;2023-12-04T07:00:17;14.90;99.00
58519;DHT22;44310;48.106;12.008;2023-12-04T07:02:49;14.90;99.00
58519;DHT22;44310;48.106;12.008;2023-12-04T07:05:19;14.90;99.00
58519;DHT22;44310;48.106;12.008;2023-12-04T07:07:46;14.90;99.00
58519;DHT22;44310;48.106;12.008;2023-12-04T07:10:13;14.90;98.90
58519;DHT22;44310;48.106;12.008;2023-12-04T07:12:42;14.80;98.80
58519;DHT22;44310;48.106;12.008;2023-12-04T07:15:11;14.80;98.80
58519;DHT22;44310;48.106;12.008;2023-12-04T07:17:39;14.80;98.70
58519;DHT22;44310;48.106;12.008;2023-12-04T07:20:07;14.80;98.60
58519;DHT22;44310;48.106;12.008;2023-12-04T07:22:34;14.80;98.50
58519;DHT22;44310;48.106;12.008;2023-12-04T07:25:06;14.80;98.40
58519;DHT22;44310;48.106;12.008;2023-12-04T07:27:36;14.80;98.30
58519;DHT22;44310;48.106;12.008;2023-12-04T07:30:04;14.80;98.20
58519;DHT22;44310;48.106;12.008;2023-12-04T07:32:32;14.80;98.10
58519;DHT22;44310;48.106;12.008;2023-12-04T07:34:59;14.80;98.00
58519;DHT22;44310;48.106;12.008;2023-12-04T07:37:27;14.80;98.00
58519;DHT22;44310;48.106;12.008;2023-12-04T07:39:57;14.80;97.90
58519;DHT22;44310;48.106;12.008;2023-12-04T07:42:24;14.80;97.80
58519;DHT22;44310;48.106;12.008;2023-12-04T07:44:51;14.70;97.70
58519;DHT22;44310;48.106;12.008;2023-12-04T07:47:18;14.70;97.60
58519;DHT22;44310;48.106;12.008;2023-12-04T07:49:45;14.70;97.50
58519;DHT22;44310;48.106;12.008;2023-12-04T07:52:13;14.70;97.40
58519;DHT22;44310;48.106;12.008;2023-12-04T07:54:40;14.20;91.30
58519;DHT22;44310;48.106;12.008;2023-12-04T07:57:08;13.20;85.20
58519;DHT22;44310;48.106;12.008;2023-12-04T07:59:35;12.60;85.30
58519;DHT22;44310;48.106;12.008;2023-12-04T08:02:02;12.50;87.80
58519;DHT22;44310;48.106;12.008;2023-12-04T08:04:29;12.60;88.10
58519;DHT22;44310;48.106;12.008;2023-12-04T08:06:56;12.90;89.90
58519;DHT22;44310;48.106;12.008;2023-12-04T08:09:24;13.20;90.80
58519;DHT22;44310;48.106;12.008;2023-12-04T08:11:51;13.40;91.10
58519;DHT22;44310;48.106;12.008;2023-12-04T08:14:21;13.50;91.10
58519;DHT22;44310;48.106;12.008;2023-12-04T08:16:48;13.70;91.60
58519;DHT22;44310;48.106;12.008;2023-12-04T08:19:16;13.80;91.90
58519;DHT22;44310;48.106;12.008;2023-12-04T08:21:43;14.00;92.10
58519;DHT22;44310;48.106;12.008;2023-12-04T08:24:10;14.00;92.30
58519;DHT22;44310;48.106;12.008;2023-12-04T08:26:37;14.10;92.50
58519;DHT22;44310;48.106;12.008;2023-12-04T08:29:04;14.20;92.60
58519;DHT22;44310;48.106;12.008;2023-12-04T08:31:32;14.20;92.80
58519;DHT22;44310;48.106;12.008;2023-12-04T08:34:02;14.30;93.00
58519;DHT22;44310;48.106;12.008;2023-12-04T08:36:29;14.30;93.20
58519;DHT22;44310;48.106;12.008;2023-12-04T08:39:10;14.40;93.30
58519;DHT22;44310;48.106;12.008;2023-12-04T08:41:37;14.40;93.40
58519;DHT22;44310;48.106;12.008;2023-12-04T08:44:11;14.50;93.60
58519;DHT22;44310;48.106;12.008;2023-12-04T08:46:38;14.50;93.80
58519;DHT22;44310;48.106;12.008;2023-12-04T08:49:05;14.50;93.90
58519;DHT22;44310;48.106;12.008;2023-12-04T08:51:33;14.50;94.10
58519;DHT22;44310;48.106;12.008;2023-12-04T08:54:01;14.60;94.30
58519;DHT22;44310;48.106;12.008;2023-12-04T08:56:28;14.60;94.40
58519;DHT22;44310;48.106;12.008;2023-12-04T08:58:57;14.60;94.50
58519;DHT22;44310;48.106;12.008;2023-12-04T09:01:24;14.60;94.60
58519;DHT22;44310;48.106;12.008;2023-12-04T09:03:52;14.60;94.80
58519;DHT22;44310;48.106;12.008;2023-12-04T09:06:20;14.60;94.90
58519;DHT22;44310;48.106;12.008;2023-12-04T09:08:48;14.60;94.90
58519;DHT22;44310;48.106;12.008;2023-12-04T09:11:29;14.60;95.00
58519;DHT22;44310;48.106;12.008;2023-12-04T09:13:56;14.60;95.20
58519;DHT22;44310;48.106;12.008;2023-12-04T09:16:23;14.60;95.20
58519;DHT22;44310;48.106;12.008;2023-12-04T09:18:50;14.60;95.30
58519;DHT22;44310;48.106;12.008;2023-12-04T09:21:17;14.70;95.30
58519;DHT22;44310;48.106;12.008;2023-12-04T09:23:45;14.70;95.30
58519;DHT22;44310;48.106;12.008;2023-12-04T09:26:16;14.70;95.30
58519;DHT22;44310;48.106;12.008;2023-12-04T09:28:44;14.60;94.60
58519;DHT22;44310;48.106;12.008;2023-12-04T09:31:11;14.40;93.40
58519;DHT22;44310;48.106;12.008;2023-12-04T09:33:38;14.00;91.10
58519;DHT22;44310;48.106;12.008;2023-12-04T09:36:05;13.50;88.00
58519;DHT22;44310;48.106;12.008;2023-12-04T09:38:34;13.00;85.00
58519;DHT22;44310;48.106;12.008;2023-12-04T09:41:03;12.90;85.80
58519;DHT22;44310;48.106;12.008;2023-12-04T09:43:31;12.90;86.90
58519;DHT22;44310;48.106;12.008;2023-12-04T09:45:59;13.00;88.20
58519;DHT22;44310;48.106;12.008;2023-12-04T09:48:26;13.30;88.90
58519;DHT22;44310;48.106;12.008;2023-12-04T09:50:55;13.40;89.80
58519;DHT22;44310;48.106;12.008;2023-12-04T09:53:24;13.60;89.80
58519;DHT22;44310;48.106;12.008;2023-12-04T09:55:56;13.70;89.90
58519;DHT22;44310;48.106;12.008;2023-12-04T09:58:27;13.60;86.50
58519;DHT22;44310;48.106;12.008;2023-12-04T10:00:56;12.70;73.00
58519;DHT22;44310;48.106;12.008;2023-12-04T10:03:25;11.80;66.90
58519;DHT22;44310;48.106;12.008;2023-12-04T10:05:54;11.00;66.00
58519;DHT22;44310;48.106;12.008;2023-12-04T10:08:21;10.90;72.20
58519;DHT22;44310;48.106;12.008;2023-12-04T10:10:48;11.50;81.20
58519;DHT22;44310;48.106;12.008;2023-12-04T10:13:16;11.90;81.50
58519;DHT22;44310;48.106;12.008;2023-12-04T10:16:03;11.90;74.30
58519;DHT22;44310;48.106;12.008;2023-12-04T10:18:31;11.70;73.10
58519;DHT22;44310;48.106;12.008;2023-12-04T10:20:59;11.80;74.20
58519;DHT22;44310;48.106;12.008;2023-12-04T10:23:40;12.10;75.60
58519;DHT22;44310;48.106;12.008;2023-12-04T10:26:08;12.40;75.50
58519;DHT22;44310;48.106;12.008;2023-12-04T10:28:36;12.70;76.20
58519;DHT22;44310;48.106;12.008;2023-12-04T10:31:03;12.80;77.50
58519;DHT22;44310;48.106;12.008;2023-12-04T10:33:33;12.90;78.70
58519;DHT22;44310;48.106;12.008;2023-12-04T10:36:01;13.10;78.00
58519;DHT22;44310;48.106;12.008;2023-12-04T10:38:30;13.10;77.90
58519;DHT22;44310;48.106;12.008;2023-12-04T10:41:14;13.20;78.10
58519;DHT22;44310;48.106;12.008;2023-12-04T10:43:47;13.40;78.60
58519;DHT22;44310;48.106;12.008;2023-12-04T10:46:27;13.40;79.00
58519;DHT22;44310;48.106;12.008;2023-12-04T10:48:55;13.50;79.50
58519;DHT22;44310;48.106;12.008;2023-12-04T10:51:24;13.50;79.80
58519;DHT22;44310;48.106;12.008;2023-12-04T10:53:52;13.60;80.10
58519;DHT22;44310;48.106;12.008;2023-12-04T10:56:26;13.60;80.10
58519;DHT22;44310;48.106;12.008;2023-12-04T10:58:56;13.70;80.30
58519;DHT22;44310;48.106;12.008;2023-12-04T11:01:25;13.70;80.60
58519;DHT22;44310;48.106;12.008;2023-12-04T11:03:56;13.80;80.80
58519;DHT22;44310;48.106;12.008;2023-12-04T11:06:27;13.80;80.90
58519;DHT22;44310;48.106;12.008;2023-12-04T11:08:56;13.80;81.40
58519;DHT22;44310;48.106;12.008;2023-12-04T11:11:30;13.90;81.70
58519;DHT22;44310;48.106;12.008;2023-12-04T11:14:01;13.90;82.10
58519;DHT22;44310;48.106;12.008;2023-12-04T11:16:43;14.20;82.30
58519;DHT22;44310;48.106;12.008;2023-12-04T11:19:28;13.90;82.20
58519;DHT22;44310;48.106;12.008;2023-12-04T11:21:58;14.00;82.50
58519;DHT22;44310;48.106;12.008;2023-12-04T11:24:26;14.00;82.70
58519;DHT22;44310;48.106;12.008;2023-12-04T11:26:53;14.00;82.70
58519;DHT22;44310;48.106;12.008;2023-12-04T11:29:21;14.70;83.10
58519;DHT22;44310;48.106;12.008;2023-12-04T11:31:49;13.80;82.60
58519;DHT22;44310;48.106;12.008;2023-12-04T11:34:16;13.70;83.40
58519;DHT22;44310;48.106;12.008;2023-12-04T11:36:44;13.70;84.20
58519;DHT22;44310;48.106;12.008;2023-12-04T11:39:12;13.60;84.20
58519;DHT22;44310;48.106;12.008;2023-12-04T11:41:40;13.60;83.60
58519;DHT22;44310;48.106;12.008;2023-12-04T11:44:12;13.60;83.30
58519;DHT22;44310;48.106;12.008;2023-12-04T11:46:56;13.50;83.20
58519;DHT22;44310;48.106;12.008;2023-12-04T11:49:30;13.60;83.30
58519;DHT22;44310;48.106;12.008;2023-12-04T11:51:59;13.60;83.30
58519;DHT22;44310;48.106;12.008;2023-12-04T11:54:27;13.60;83.50
58519;DHT22;44310;48.106;12.008;2023-12-04T11:59:37;13.60;83.70
58519;DHT22;44310;48.106;12.008;2023-12-04T12:02:09;13.60;83.80
58519;DHT22;44310;48.106;12.008;2023-12-04T12:04:37;13.60;84.00
58519;DHT22;44310;48.106;12.008;2023-12-04T12:07:05;13.70;84.50
58519;DHT22;44310;48.106;12.008;2023-12-04T12:09:33;13.70;84.60
58519;DHT22;44310;48.106;12.008;2023-12-04T12:12:02;13.70;84.80
58519;DHT22;44310;48.106;12.008;2023-12-04T12:14:30;13.70;84.90
58519;DHT22;44310;48.106;12.008;2023-12-04T12:16:59;13.60;84.70
58519;DHT22;44310;48.106;12.008;2023-12-04T12:19:27;13.70;85.10
58519;DHT22;44310;48.106;12.008;2023-12-04T12:21:55;13.70;85.30
58519;DHT22;44310;48.106;12.008;2023-12-04T12:24:23;13.70;85.70
58519;DHT22;44310;48.106;12.008;2023-12-04T12:26:52;13.70;86.10
58519;DHT22;44310;48.106;12.008;2023-12-04T12:29:20;13.70;86.20
58519;DHT22;44310;48.106;12.008;2023-12-04T12:31:47;13.70;86.50
58519;DHT22;44310;48.106;12.008;2023-12-04T12:34:14;13.70;86.90
58519;DHT22;44310;48.106;12.008;2023-12-04T12:36:42;13.60;86.80
58519;DHT22;44310;48.106;12.008;2023-12-04T12:39:09;13.70;86.90
58519;DHT22;44310;48.106;12.008;2023-12-04T12:41:36;13.70;87.00
58519;DHT22;44310;48.106;12.008;2023-12-04T12:44:04;13.70;87.10
58519;DHT22;44310;48.106;12.008;2023-12-04T12:46:33;13.70;87.00
58519;DHT22;44310;48.106;12.008;2023-12-04T12:49:00;13.60;87.10
58519;DHT22;44310;48.106;12.008;2023-12-04T12:51:28;13.70;87.30
58519;DHT22;44310;48.106;12.008;2023-12-04T12:53:57;13.70;87.40
58519;DHT22;44310;48.106;12.008;2023-12-04T12:56:25;13.70;87.50
58519;DHT22;44310;48.106;12.008;2023-12-04T12:58:53;13.70;87.60
58519;DHT22;44310;48.106;12.008;2023-12-04T13:01:23;13.70;87.90
58519;DHT22;44310;48.106;12.008;2023-12-04T13:03:52;13.70;87.90
58519;DHT22;44310;48.106;12.008;2023-12-04T13:06:19;13.70;88.10
58519;DHT22;44310;48.106;12.008;2023-12-04T13:08:47;13.70;88.20
58519;DHT22;44310;48.106;12.008;2023-12-04T13:11:14;13.70;88.10
58519;DHT22;44310;48.106;12.008;2023-12-04T13:13:41;13.70;88.10
58519;DHT22;44310;48.106;12.008;2023-12-04T13:16:09;13.70;88.30
58519;DHT22;44310;48.106;12.008;2023-12-04T13:18:36;13.70;88.60
58519;DHT22;44310;48.106;12.008;2023-12-04T13:21:05;13.70;86.50
58519;DHT22;44310;48.106;12.008;2023-12-04T13:23:32;13.60;86.80
58519;DHT22;44310;48.106;12.008;2023-12-04T13:25:59;13.60;86.30
58519;DHT22;44310;48.106;12.008;2023-12-04T13:28:26;13.60;85.40
58519;DHT22;44310;48.106;12.008;2023-12-04T13:31:04;13.60;85.00
58519;DHT22;44310;48.106;12.008;2023-12-04T13:33:31;13.70;85.20
58519;DHT22;44310;48.106;12.008;2023-12-04T13:36:00;13.70;85.30
58519;DHT22;44310;48.106;12.008;2023-12-04T13:38:28;13.80;85.30
58519;DHT22;44310;48.106;12.008;2023-12-04T13:41:03;13.80;85.40
58519;DHT22;44310;48.106;12.008;2023-12-04T13:44:06;13.90;85.50
58519;DHT22;44310;48.106;12.008;2023-12-04T13:46:33;14.30;86.10
58519;DHT22;44310;48.106;12.008;2023-12-04T13:49:01;13.90;86.40
58519;DHT22;44310;48.106;12.008;2023-12-04T13:51:28;14.00;86.60
58519;DHT22;44310;48.106;12.008;2023-12-04T13:53:55;14.00;86.80
58519;DHT22;44310;48.106;12.008;2023-12-04T13:56:29;14.10;87.00
58519;DHT22;44310;48.106;12.008;2023-12-04T13:59:23;14.10;87.00
58519;DHT22;44310;48.106;12.008;2023-12-04T14:01:51;14.10;87.20
58519;DHT22;44310;48.106;12.008;2023-12-04T14:04:19;14.20;87.10
58519;DHT22;44310;48.106;12.008;2023-12-04T14:06:47;14.20;87.30
58519;DHT22;44310;48.106;12.008;2023-12-04T14:09:15;14.20;87.40
58519;DHT22;44310;48.106;12.008;2023-12-04T14:11:43;14.40;89.50
58519;DHT22;44310;48.106;12.008;2023-12-04T14:14:14;14.40;91.00
58519;DHT22;44310;48.106;12.008;2023-12-04T14:16:41;14.30;87.90
58519;DHT22;44310;48.106;12.008;2023-12-04T14:19:09;13.80;85.40
58519;DHT22;44310;48.106;12.008;2023-12-04T14:21:36;13.70;85.90
58519;DHT22;44310;48.106;12.008;2023-12-04T14:24:04;13.60;86.10
58519;DHT22;44310;48.106;12.008;2023-12-04T14:26:31;13.60;86.00
58519;DHT22;44310;48.106;12.008;2023-12-04T14:28:59;13.60;87.00
58519;DHT22;44310;48.106;12.008;2023-12-04T14:31:28;13.70;88.20
58519;DHT22;44310;48.106;12.008;2023-12-04T14:33:55;13.80;89.10
58519;DHT22;44310;48.106;12.008;2023-12-04T14:36:23;13.90;90.00
58519;DHT22;44310;48.106;12.008;2023-12-04T14:38:50;14.00;90.40
58519;DHT22;44310;48.106;12.008;2023-12-04T14:41:17;14.10;90.40
58519;DHT22;44310;48.106;12.008;2023-12-04T14:43:44;14.20;90.70
58519;DHT22;44310;48.106;12.008;2023-12-04T14:46:12;14.40;91.00
58519;DHT22;44310;48.106;12.008;2023-12-04T14:48:40;14.30;91.30
58519;DHT22;44310;48.106;12.008;2023-12-04T14:51:09;14.30;91.40
58519;DHT22;44310;48.106;12.008;2023-12-04T14:53:39;14.40;91.70
58519;DHT22;44310;48.106;12.008;2023-12-04T14:56:11;14.40;92.00
58519;DHT22;44310;48.106;12.008;2023-12-04T14:59:01;14.50;92.20
58519;DHT22;44310;48.106;12.008;2023-12-04T15:01:47;14.40;92.50
58519;DHT22;44310;48.106;12.008;2023-12-04T15:04:33;14.50;92.80
58519;DHT22;44310;48.106;12.008;2023-12-04T15:07:38;14.50;93.10
58519;DHT22;44310;48.106;12.008;2023-12-04T15:10:24;14.40;93.10
58519;DHT22;44310;48.106;12.008;2023-12-04T15:13:09;14.50;93.40
58519;DHT22;44310;48.106;12.008;2023-12-04T15:15:39;14.50;93.50
58519;DHT22;44310;48.106;12.008;2023-12-04T15:18:27;14.50;93.80
58519;DHT22;44310;48.106;12.008;2023-12-04T15:21:03;14.50;93.90
58519;DHT22;44310;48.106;12.008;2023-12-04T15:23:31;14.50;94.00
58519;DHT22;44310;48.106;12.008;2023-12-04T15:25:58;14.60;94.10
58519;DHT22;44310;48.106;12.008;2023-12-04T15:28:25;14.60;94.40